KADG/ADG METAR and TAF weather

Enter ICAO airport designator
Station Type Date Time Source
KADG METAR 2020/04/04 20:53 UTC NOAA

KADG 042053Z AUTO 32007KT 10SM BKN040 OVC055 13/06 A3000 RMK AO2 SLP163 T01280056 55011 $


Station Type Date Time Source
KADG Decoded METAR 2020/04/04 20:53 UTC NOAA

ADRIAN LENAWEE COUNTY AIRPORT, MI, United States (KADG) 41-52N 84-05W 241M
Apr 04, 2020 - 04:53 PM EDT / 2020.04.04 2053 UTC
Wind: from the NW (320 degrees) at 8 MPH (7 KT):0
Visibility: 10 mile(s):0
Sky conditions: overcast
Temperature: 55.0 F (12.8 C)
Dew Point: 42.1 F (5.6 C)
Relative Humidity: 61%
Pressure (altimeter): 30 in. Hg (1015 hPa)
Pressure tendency: 0.03 inches (1.1 hPa) lower than three hours ago
ob: KADG 042053Z AUTO 32007KT 10SM BKN040 OVC055 13/06 A3000 RMK AO2 SLP163 T01280056 55011
cycle: 21

Station Type Date Time Source
KADG TAF UTC NOAA

Error!

Example: see airport list